createdAt,value
2022-09-12T00:00:43.838Z,19.87
2022-09-12T00:03:10.933Z,19.84
2022-09-12T00:05:41.955Z,19.78
2022-09-12T00:08:09.105Z,19.73
2022-09-12T00:10:39.708Z,19.64
2022-09-12T00:13:07.172Z,19.58
2022-09-12T00:15:38.578Z,19.53
2022-09-12T00:18:08.409Z,19.54
2022-09-12T00:20:35.728Z,19.54
2022-09-12T00:23:03.106Z,19.54
2022-09-12T00:25:31.323Z,19.56
2022-09-12T00:27:58.417Z,19.53
2022-09-12T00:30:25.745Z,19.52
2022-09-12T00:32:54.751Z,19.49
2022-09-12T00:35:23.325Z,19.49
2022-09-12T00:37:50.474Z,19.50
2022-09-12T00:40:18.014Z,19.56
2022-09-12T00:42:45.122Z,19.51
2022-09-12T00:45:21.854Z,19.47
2022-09-12T00:47:49.446Z,19.44
2022-09-12T00:50:17.848Z,19.43
2022-09-12T00:52:50.990Z,19.37
2022-09-12T00:55:21.349Z,19.36
2022-09-12T00:57:52.741Z,19.29
2022-09-12T01:00:22.444Z,19.30
2022-09-12T01:02:53.545Z,19.27
2022-09-12T01:05:22.513Z,19.24
2022-09-12T01:07:51.696Z,19.27
2022-09-12T01:10:19.946Z,19.26
2022-09-12T01:12:48.012Z,19.24
2022-09-12T01:15:15.131Z,19.24
2022-09-12T01:17:52.988Z,19.23
2022-09-12T01:20:49.661Z,19.25
2022-09-12T01:23:50.757Z,19.23
2022-09-12T01:27:04.961Z,19.22
2022-09-12T01:29:49.729Z,19.20
2022-09-12T01:32:26.539Z,19.18
2022-09-12T01:35:04.249Z,19.16
2022-09-12T01:37:39.577Z,19.14
2022-09-12T01:40:14.693Z,19.14
2022-09-12T01:42:45.246Z,19.15
2022-09-12T01:45:19.088Z,19.11
2022-09-12T01:47:51.874Z,19.06
2022-09-12T01:50:21.724Z,19.08
2022-09-12T01:52:53.816Z,19.03
2022-09-12T01:55:25.400Z,18.98
2022-09-12T01:57:57.606Z,18.98
2022-09-12T02:00:25.193Z,18.97
2022-09-12T02:02:58.007Z,18.92
2022-09-12T02:05:31.379Z,18.89
2022-09-12T02:08:03.988Z,18.93
2022-09-12T02:10:34.692Z,18.94
2022-09-12T02:13:12.549Z,18.93
2022-09-12T02:15:43.676Z,18.99
2022-09-12T02:18:16.047Z,19.03
2022-09-12T02:20:48.488Z,19.07
2022-09-12T02:23:20.853Z,19.07
2022-09-12T02:25:52.298Z,18.98
2022-09-12T02:28:26.339Z,18.99
2022-09-12T02:31:00.906Z,19.06
2022-09-12T02:33:35.807Z,19.10
2022-09-12T02:36:13.083Z,19.13
2022-09-12T02:38:45.424Z,19.17
2022-09-12T02:41:15.825Z,19.17
2022-09-12T02:43:43.095Z,19.23
2022-09-12T02:46:21.344Z,19.19
2022-09-12T02:48:49.828Z,19.09
2022-09-12T02:51:21.510Z,19.11
2022-09-12T02:53:50.877Z,19.11
2022-09-12T02:56:23.681Z,19.12
2022-09-12T02:58:51.498Z,19.10
2022-09-12T03:01:29.835Z,19.08
2022-09-12T03:04:19.366Z,19.03
2022-09-12T03:06:54.492Z,18.99
2022-09-12T03:09:34.914Z,18.96
2022-09-12T03:12:26.065Z,18.94
2022-09-12T03:15:10.914Z,18.99
2022-09-12T03:17:55.718Z,18.99
2022-09-12T03:20:33.580Z,19.00
2022-09-12T03:23:05.844Z,19.07
2022-09-12T03:25:36.529Z,19.02
2022-09-12T03:28:08.200Z,18.90
2022-09-12T03:30:39.272Z,18.82
2022-09-12T03:33:06.469Z,18.72
2022-09-12T03:35:34.865Z,18.64
2022-09-12T03:38:02.141Z,18.65
2022-09-12T03:40:29.461Z,18.67
2022-09-12T03:42:56.546Z,18.64
2022-09-12T03:45:23.699Z,18.61
2022-09-12T03:47:50.743Z,18.63
2022-09-12T03:50:18.205Z,18.62
2022-09-12T03:52:46.623Z,18.59
2022-09-12T03:55:13.856Z,18.62
2022-09-12T03:57:40.912Z,18.67
2022-09-12T04:00:09.269Z,18.65
2022-09-12T04:02:46.647Z,18.58
2022-09-12T04:05:14.014Z,18.58
2022-09-12T04:07:41.127Z,18.55
2022-09-12T04:10:09.994Z,18.47
2022-09-12T04:12:37.228Z,18.43
2022-09-12T04:15:05.189Z,18.34
2022-09-12T04:17:32.242Z,18.30
2022-09-12T04:19:59.501Z,18.27
2022-09-12T04:22:26.896Z,18.27
2022-09-12T04:24:53.950Z,18.23
2022-09-12T04:27:22.598Z,18.27
2022-09-12T04:29:49.686Z,18.31
2022-09-12T04:32:16.810Z,18.35
2022-09-12T04:34:43.862Z,18.40
2022-09-12T04:37:11.785Z,18.45
2022-09-12T04:39:38.935Z,18.50
2022-09-12T04:42:06.478Z,18.55
2022-09-12T04:44:35.303Z,18.59
2022-09-12T04:47:03.387Z,18.68
2022-09-12T04:49:30.523Z,18.74
2022-09-12T04:51:57.822Z,18.80
2022-09-12T04:54:25.294Z,18.97
2022-09-12T04:56:52.741Z,19.19
2022-09-12T04:59:21.831Z,19.30
2022-09-12T05:01:50.444Z,19.49
2022-09-12T05:04:18.137Z,19.62
2022-09-12T05:06:47.422Z,19.78
2022-09-12T05:09:15.899Z,19.97
2022-09-12T05:14:32.943Z,20.28
2022-09-12T05:17:02.294Z,20.51
2022-09-12T05:19:31.089Z,20.65
2022-09-12T05:21:59.011Z,20.84
2022-09-12T05:24:26.234Z,21.05
2022-09-12T05:26:53.396Z,21.21
2022-09-12T05:29:20.534Z,21.37
2022-09-12T05:31:50.181Z,21.45
2022-09-12T05:34:19.125Z,21.38
2022-09-12T05:36:46.169Z,21.13
2022-09-12T05:39:13.490Z,21.18
2022-09-12T05:41:40.609Z,21.42
2022-09-12T05:44:12.480Z,21.63
2022-09-12T05:46:41.850Z,21.72
2022-09-12T05:49:11.359Z,21.85
2022-09-12T05:51:43.745Z,22.10
2022-09-12T05:54:13.226Z,22.36
2022-09-12T05:56:41.851Z,22.56
2022-09-12T05:59:13.102Z,22.60
2022-09-12T06:01:40.808Z,22.79
2022-09-12T06:04:08.334Z,22.88
2022-09-12T06:06:38.576Z,23.07
2022-09-12T06:09:07.428Z,23.25
2022-09-12T06:11:37.264Z,23.42
2022-09-12T06:14:05.056Z,23.72
2022-09-12T06:16:33.799Z,23.82
2022-09-12T06:19:03.002Z,23.73
2022-09-12T06:21:34.646Z,23.73
2022-09-12T06:24:02.467Z,23.90
2022-09-12T06:26:31.174Z,23.96
2022-09-12T06:29:00.830Z,24.01
2022-09-12T06:31:30.164Z,24.24
2022-09-12T06:34:01.286Z,24.33
2022-09-12T06:36:30.120Z,24.57
2022-09-12T06:38:59.444Z,24.80
2022-09-12T06:41:27.262Z,25.00
2022-09-12T06:43:55.949Z,25.12
2022-09-12T06:46:23.501Z,25.36
2022-09-12T06:48:50.638Z,25.27
2022-09-12T06:51:20.072Z,25.36
2022-09-12T06:53:48.575Z,25.60
2022-09-12T06:56:17.341Z,25.80
2022-09-12T06:58:44.745Z,26.02
2022-09-12T07:01:15.576Z,26.24
2022-09-12T07:03:44.293Z,26.36
2022-09-12T07:06:14.489Z,26.46
2022-09-12T07:08:41.689Z,26.54
2022-09-12T07:11:10.641Z,26.51
2022-09-12T07:13:38.065Z,26.55
2022-09-12T07:16:06.538Z,26.54
2022-09-12T07:18:35.249Z,26.57
2022-09-12T07:21:03.032Z,26.73
2022-09-12T07:23:30.373Z,26.99
2022-09-12T07:25:59.218Z,26.92
2022-09-12T07:28:27.654Z,26.88
2022-09-12T07:30:55.958Z,26.83
2022-09-12T07:33:24.603Z,27.03
2022-09-12T07:35:54.438Z,27.06
2022-09-12T07:38:21.725Z,27.02
2022-09-12T07:40:49.127Z,27.16
2022-09-12T07:43:16.234Z,27.37
2022-09-12T07:45:43.584Z,27.71
2022-09-12T07:48:10.690Z,27.83
2022-09-12T07:50:40.933Z,28.02
2022-09-12T07:53:11.707Z,28.18
2022-09-12T07:55:38.765Z,28.28
2022-09-12T07:58:05.819Z,28.42
2022-09-12T08:00:35.975Z,28.22
2022-09-12T08:03:03.874Z,28.21
2022-09-12T08:05:31.149Z,28.42
2022-09-12T08:07:58.808Z,28.50
2022-09-12T08:10:27.525Z,28.23
2022-09-12T08:12:54.636Z,28.17
2022-09-12T08:15:21.714Z,28.18
2022-09-12T08:17:48.776Z,28.21
2022-09-12T08:20:16.037Z,28.12
2022-09-12T08:22:43.388Z,28.45
2022-09-12T08:25:11.454Z,28.58
2022-09-12T08:27:40.827Z,28.54
2022-09-12T08:30:09.934Z,28.55
2022-09-12T08:32:37.189Z,28.71
2022-09-12T08:35:04.897Z,28.91
2022-09-12T08:37:32.219Z,28.80
2022-09-12T08:39:59.571Z,28.98
2022-09-12T08:42:40.913Z,28.95
2022-09-12T08:45:18.012Z,29.05
2022-09-12T08:47:46.939Z,29.13
2022-09-12T08:50:17.815Z,29.33
2022-09-12T08:52:53.377Z,29.37
2022-09-12T08:55:28.513Z,29.36
2022-09-12T08:57:55.616Z,29.25
2022-09-12T09:00:26.033Z,29.35
2022-09-12T09:03:23.875Z,29.58
2022-09-12T09:05:59.303Z,29.78
2022-09-12T09:08:45.293Z,29.95
2022-09-12T09:11:34.414Z,30.00
2022-09-12T09:14:49.138Z,30.04
2022-09-12T09:17:25.258Z,30.19
2022-09-12T09:19:59.231Z,30.40
2022-09-12T09:22:36.404Z,30.40
2022-09-12T09:25:07.796Z,30.34
2022-09-12T09:27:41.994Z,30.51
2022-09-12T09:30:14.462Z,30.38
2022-09-12T09:32:44.169Z,29.92
2022-09-12T09:35:18.329Z,30.09
2022-09-12T09:38:00.624Z,29.83
2022-09-12T09:40:37.521Z,29.15
2022-09-12T09:43:11.066Z,29.36
2022-09-12T09:45:39.442Z,29.55
2022-09-12T09:48:16.805Z,29.11
2022-09-12T09:50:49.564Z,29.18
2022-09-12T09:53:30.236Z,29.55
2022-09-12T09:56:00.294Z,29.88
2022-09-12T09:58:31.878Z,29.90
2022-09-12T10:01:00.153Z,29.90
2022-09-12T10:03:33.694Z,29.64
2022-09-12T10:06:02.925Z,29.03
2022-09-12T10:08:32.085Z,28.56
2022-09-12T10:11:02.542Z,28.27
2022-09-12T10:13:35.234Z,27.85
2022-09-12T10:16:05.741Z,27.72
2022-09-12T10:18:39.975Z,28.12
2022-09-12T10:21:16.898Z,27.98
2022-09-12T10:23:45.316Z,27.69
2022-09-12T10:26:15.460Z,27.40
2022-09-12T10:28:46.817Z,27.40
2022-09-12T10:31:16.772Z,27.91
2022-09-12T10:33:52.584Z,28.56
2022-09-12T10:36:20.530Z,28.94
2022-09-12T10:38:52.745Z,29.17
2022-09-12T10:41:21.848Z,29.40
2022-09-12T10:43:49.626Z,29.75
2022-09-12T10:46:31.265Z,29.98
2022-09-12T10:49:24.860Z,29.44
2022-09-12T10:51:54.082Z,28.91
2022-09-12T10:54:24.900Z,29.04
2022-09-12T10:57:11.348Z,29.53
2022-09-12T10:59:55.732Z,30.00
2022-09-12T11:02:29.003Z,30.09
2022-09-12T11:05:05.754Z,30.13
2022-09-12T11:07:40.761Z,29.85
2022-09-12T11:10:21.996Z,29.80
2022-09-12T11:12:56.094Z,29.49
2022-09-12T11:15:46.804Z,29.45
2022-09-12T11:18:27.146Z,29.05
2022-09-12T11:21:09.512Z,28.54
2022-09-12T11:23:53.491Z,28.69
2022-09-12T11:26:31.329Z,29.13
2022-09-12T11:29:11.318Z,29.43
2022-09-12T11:31:54.060Z,29.35
2022-09-12T11:34:32.513Z,28.87
2022-09-12T11:37:20.069Z,28.35
2022-09-12T11:39:55.631Z,28.70
2022-09-12T11:42:30.139Z,29.30
2022-09-12T11:45:04.541Z,29.69
2022-09-12T11:47:35.377Z,29.81
2022-09-12T11:50:16.028Z,29.37
2022-09-12T11:52:44.670Z,28.82
2022-09-12T11:55:17.530Z,28.94
2022-09-12T11:57:49.302Z,29.17
2022-09-12T12:00:18.605Z,29.12
2022-09-12T12:02:55.973Z,29.09
2022-09-12T12:05:26.438Z,28.89
2022-09-12T12:07:57.121Z,28.79
2022-09-12T12:10:27.886Z,28.53
2022-09-12T12:12:56.231Z,28.30
2022-09-12T12:15:25.598Z,28.42
2022-09-12T12:18:08.254Z,28.85
2022-09-12T12:20:36.241Z,29.09
2022-09-12T12:23:06.433Z,29.19
2022-09-12T12:25:51.569Z,29.23
2022-09-12T12:29:00.364Z,28.80
2022-09-12T12:31:27.608Z,28.25
2022-09-12T12:34:32.970Z,28.40
2022-09-12T12:37:38.815Z,28.81
2022-09-12T12:40:20.833Z,29.12
2022-09-12T12:42:59.548Z,29.36
2022-09-12T12:46:01.877Z,29.55
2022-09-12T12:48:33.848Z,29.60
2022-09-12T12:51:36.447Z,29.63
2022-09-12T12:54:09.775Z,29.53
2022-09-12T12:56:42.617Z,29.52
2022-09-12T12:59:17.965Z,29.15
2022-09-12T13:01:51.548Z,28.85
2022-09-12T13:04:24.980Z,28.93
2022-09-12T13:06:59.513Z,29.08
2022-09-12T13:09:28.638Z,29.11
2022-09-12T13:12:04.387Z,29.10
2022-09-12T13:14:50.185Z,29.09
2022-09-12T13:17:24.220Z,29.11
2022-09-12T13:20:16.942Z,29.14
2022-09-12T13:22:43.008Z,29.18
2022-09-12T13:25:24.831Z,29.19
2022-09-12T13:28:06.151Z,29.21
2022-09-12T13:30:35.326Z,28.91
2022-09-12T13:33:18.054Z,28.50
2022-09-12T13:36:18.323Z,28.28
2022-09-12T13:38:56.472Z,28.45
2022-09-12T13:41:39.322Z,28.47
2022-09-12T13:44:11.596Z,28.57
2022-09-12T13:46:39.377Z,28.67
2022-09-12T13:49:19.138Z,28.67
2022-09-12T13:51:46.789Z,28.55
2022-09-12T13:54:22.529Z,28.13
2022-09-12T13:56:51.634Z,27.81
2022-09-12T13:59:20.124Z,27.64
2022-09-12T14:01:48.346Z,27.63
2022-09-12T14:04:36.319Z,27.47
2022-09-12T14:07:11.736Z,27.29
2022-09-12T14:09:41.457Z,27.10
2022-09-12T14:12:20.634Z,26.97
2022-09-12T14:14:51.417Z,26.81
2022-09-12T14:17:24.132Z,26.68
2022-09-12T14:19:52.861Z,26.57
2022-09-12T14:22:20.281Z,26.43
2022-09-12T14:24:51.795Z,26.33
2022-09-12T14:27:23.453Z,26.20
2022-09-12T14:29:56.271Z,26.17
2022-09-12T14:32:24.963Z,26.14
2022-09-12T14:35:16.761Z,26.06
2022-09-12T14:37:49.011Z,26.08
2022-09-12T14:40:18.948Z,26.04
2022-09-12T14:42:49.542Z,26.02
2022-09-12T14:45:27.434Z,26.00
2022-09-12T14:47:55.889Z,25.92
2022-09-12T14:50:26.330Z,25.87
2022-09-12T14:53:04.959Z,25.81
2022-09-12T14:55:34.074Z,25.80
2022-09-12T14:58:14.546Z,25.82
2022-09-12T15:00:54.861Z,25.82
2022-09-12T15:03:28.334Z,25.78
2022-09-12T15:05:55.945Z,25.78
2022-09-12T15:08:23.258Z,25.81
2022-09-12T15:10:50.827Z,25.79
2022-09-12T15:13:23.076Z,25.81
2022-09-12T15:15:54.283Z,25.79
2022-09-12T15:18:22.685Z,25.80
2022-09-12T15:20:51.745Z,25.77
2022-09-12T15:23:23.737Z,25.73
2022-09-12T15:25:51.213Z,25.70
2022-09-12T15:28:20.514Z,25.68
2022-09-12T15:30:50.465Z,25.62
2022-09-12T15:33:21.030Z,25.66
2022-09-12T15:35:48.160Z,25.58
2022-09-12T15:38:15.341Z,25.48
2022-09-12T15:40:42.477Z,25.42
2022-09-12T15:43:12.300Z,25.27
2022-09-12T15:45:41.797Z,25.12
2022-09-12T15:48:10.209Z,25.01
2022-09-12T15:50:38.822Z,24.92
2022-09-12T15:53:05.894Z,24.89
2022-09-12T15:55:33.505Z,24.84
2022-09-12T15:58:04.856Z,24.77
2022-09-12T16:00:34.238Z,24.73
2022-09-12T16:03:01.438Z,24.67
2022-09-12T16:05:29.584Z,24.64
2022-09-12T16:07:58.040Z,24.58
2022-09-12T16:10:27.794Z,24.49
2022-09-12T16:12:54.952Z,24.42
2022-09-12T16:15:23.713Z,24.36
2022-09-12T16:17:51.565Z,24.25
2022-09-12T16:20:19.355Z,24.17
2022-09-12T16:22:46.707Z,24.10
2022-09-12T16:25:15.234Z,23.97
2022-09-12T16:27:42.622Z,23.87
2022-09-12T16:30:10.700Z,23.79
2022-09-12T16:32:37.812Z,23.70
2022-09-12T16:35:06.222Z,23.63
2022-09-12T16:37:34.679Z,23.58
2022-09-12T16:40:02.122Z,23.51
2022-09-12T16:42:30.681Z,23.40
2022-09-12T16:44:57.843Z,23.36
2022-09-12T16:47:25.374Z,23.19
2022-09-12T16:49:52.445Z,23.13
2022-09-12T16:52:19.549Z,23.09
2022-09-12T16:54:46.686Z,23.04
2022-09-12T16:57:13.790Z,22.99
2022-09-12T16:59:42.241Z,22.90
2022-09-12T17:02:12.072Z,22.83
2022-09-12T17:04:39.143Z,22.76
2022-09-12T17:07:07.014Z,22.73
2022-09-12T17:09:34.535Z,22.70
2022-09-12T17:12:02.116Z,22.66
2022-09-12T17:14:30.509Z,22.59
2022-09-12T17:16:59.044Z,22.52
2022-09-12T17:19:29.589Z,22.51
2022-09-12T17:21:57.346Z,22.46
2022-09-12T17:24:25.265Z,22.47
2022-09-12T17:26:53.592Z,22.46
2022-09-12T17:29:21.077Z,22.47
2022-09-12T17:31:48.843Z,22.44
2022-09-12T17:34:17.865Z,22.40
2022-09-12T17:36:45.611Z,22.36
2022-09-12T17:39:13.683Z,22.33
2022-09-12T17:41:45.800Z,22.29
2022-09-12T17:44:17.345Z,22.28
2022-09-12T17:46:44.660Z,22.29
2022-09-12T17:49:13.780Z,22.30
2022-09-12T17:51:43.934Z,22.28
2022-09-12T17:54:12.912Z,22.27
2022-09-12T17:56:40.502Z,22.25
2022-09-12T17:59:10.837Z,22.19
2022-09-12T18:01:57.000Z,22.16
2022-09-12T18:04:24.219Z,22.10
2022-09-12T18:06:53.065Z,22.06
2022-09-12T18:09:22.035Z,22.04
2022-09-12T18:11:49.991Z,22.03
2022-09-12T18:14:17.857Z,22.02
2022-09-12T18:16:45.535Z,22.03
2022-09-12T18:19:13.319Z,22.03
2022-09-12T18:21:40.587Z,22.00
2022-09-12T18:24:10.005Z,22.00
2022-09-12T18:26:37.502Z,22.00
2022-09-12T18:29:04.896Z,21.98
2022-09-12T18:31:32.146Z,21.98
2022-09-12T18:34:00.390Z,21.99
2022-09-12T18:36:28.340Z,22.01
2022-09-12T18:38:56.918Z,22.00
2022-09-12T18:41:25.985Z,21.97
2022-09-12T18:43:55.491Z,22.01
2022-09-12T18:46:22.968Z,22.01
2022-09-12T18:48:50.295Z,22.04
2022-09-12T18:51:19.170Z,22.06
2022-09-12T18:53:50.418Z,22.04
2022-09-12T18:56:17.842Z,22.01
2022-09-12T18:58:50.677Z,21.99
2022-09-12T19:01:20.434Z,21.96
2022-09-12T19:03:48.423Z,21.90
2022-09-12T19:06:18.338Z,21.84
2022-09-12T19:08:46.338Z,21.79
2022-09-12T19:11:13.468Z,21.73
2022-09-12T19:13:42.601Z,21.66
2022-09-12T19:16:13.689Z,21.53
2022-09-12T19:18:41.425Z,21.49
2022-09-12T19:21:13.210Z,21.46
2022-09-12T19:23:40.382Z,21.45
2022-09-12T19:26:10.066Z,21.44
2022-09-12T19:28:37.252Z,21.40
2022-09-12T19:31:05.935Z,21.36
2022-09-12T19:33:34.953Z,21.32
2022-09-12T19:36:03.536Z,21.27
2022-09-12T19:38:31.189Z,21.24
2022-09-12T19:40:59.068Z,21.20
2022-09-12T19:43:26.513Z,21.17
2022-09-12T19:45:55.738Z,21.14
2022-09-12T19:48:23.062Z,21.06
2022-09-12T19:50:51.698Z,21.03
2022-09-12T19:53:19.151Z,21.03
2022-09-12T19:55:46.965Z,21.01
2022-09-12T19:58:14.150Z,20.97
2022-09-12T20:00:41.435Z,20.96
2022-09-12T20:03:08.833Z,20.95
2022-09-12T20:05:40.748Z,20.91
2022-09-12T20:08:11.037Z,20.88
2022-09-12T20:10:38.085Z,20.86
2022-09-12T20:13:05.846Z,20.83
2022-09-12T20:15:32.929Z,20.80
2022-09-12T20:18:00.089Z,20.77
2022-09-12T20:20:27.566Z,20.74
2022-09-12T20:22:54.642Z,20.73
2022-09-12T20:25:23.142Z,20.69
2022-09-12T20:27:50.391Z,20.66
2022-09-12T20:30:17.878Z,20.63
2022-09-12T20:32:45.116Z,20.60
2022-09-12T20:35:12.263Z,20.61
2022-09-12T20:37:40.718Z,20.60
2022-09-12T20:40:08.794Z,20.61
2022-09-12T20:42:37.730Z,20.60
2022-09-12T20:45:05.722Z,20.59
2022-09-12T20:47:32.822Z,20.58
2022-09-12T20:49:59.961Z,20.55
2022-09-12T20:52:27.010Z,20.55
2022-09-12T20:54:54.129Z,20.53
2022-09-12T20:57:21.238Z,20.50
2022-09-12T20:59:50.501Z,20.50
2022-09-12T21:02:17.772Z,20.48
2022-09-12T21:04:45.095Z,20.43
2022-09-12T21:07:12.279Z,20.41
2022-09-12T21:09:39.705Z,20.39
2022-09-12T21:12:07.042Z,20.35
2022-09-12T21:14:34.268Z,20.34
2022-09-12T21:17:03.116Z,20.28
2022-09-12T21:19:30.361Z,20.26
2022-09-12T21:21:57.532Z,20.25
2022-09-12T21:24:24.738Z,20.25
2022-09-12T21:26:52.028Z,20.26
2022-09-12T21:29:19.148Z,20.24
2022-09-12T21:31:49.370Z,20.23
2022-09-12T21:34:18.056Z,20.22
2022-09-12T21:36:45.286Z,20.22
2022-09-12T21:39:12.413Z,20.18
2022-09-12T21:41:39.548Z,20.15
2022-09-12T21:44:07.740Z,20.14
2022-09-12T21:46:34.947Z,20.12
2022-09-12T21:49:02.787Z,20.09
2022-09-12T21:51:31.429Z,20.10
2022-09-12T21:53:58.664Z,20.10
2022-09-12T21:56:25.815Z,20.08
2022-09-12T21:58:53.033Z,20.08
2022-09-12T22:01:20.388Z,20.05
2022-09-12T22:03:48.044Z,20.03
2022-09-12T22:06:17.025Z,19.97
2022-09-12T22:08:48.117Z,19.95
2022-09-12T22:11:15.386Z,19.92
2022-09-12T22:13:45.236Z,19.92
2022-09-12T22:16:12.875Z,19.89
2022-09-12T22:18:40.271Z,19.86
2022-09-12T22:21:09.637Z,19.82
2022-09-12T22:23:55.099Z,19.81
2022-09-12T22:26:23.745Z,19.81
2022-09-12T22:28:51.477Z,19.74
2022-09-12T22:31:18.952Z,19.72
2022-09-12T22:33:46.643Z,19.69
2022-09-12T22:36:14.198Z,19.66
2022-09-12T22:38:41.530Z,19.60
2022-09-12T22:41:10.846Z,19.56
2022-09-12T22:43:39.596Z,19.52
2022-09-12T22:46:07.685Z,19.49
2022-09-12T22:48:34.862Z,19.45
2022-09-12T22:51:02.214Z,19.40
2022-09-12T22:53:29.434Z,19.36
2022-09-12T22:55:56.643Z,19.30
2022-09-12T22:58:23.871Z,19.24
2022-09-12T23:00:52.619Z,19.15
2022-09-12T23:03:21.375Z,19.08
2022-09-12T23:05:48.849Z,19.00
2022-09-12T23:08:17.115Z,18.88
2022-09-12T23:10:44.453Z,18.79
2022-09-12T23:13:11.736Z,18.74
2022-09-12T23:15:39.056Z,18.68
2022-09-12T23:18:08.447Z,18.64
2022-09-12T23:20:35.623Z,18.59
2022-09-12T23:23:02.925Z,18.55
2022-09-12T23:25:30.978Z,18.54
2022-09-12T23:27:58.660Z,18.52
2022-09-12T23:30:25.878Z,18.52
2022-09-12T23:32:53.051Z,18.46
2022-09-12T23:35:21.593Z,18.41
2022-09-12T23:37:48.764Z,18.41
2022-09-12T23:40:16.313Z,18.39
2022-09-12T23:42:43.496Z,18.34
2022-09-12T23:45:10.880Z,18.32
2022-09-12T23:47:38.063Z,18.26
2022-09-12T23:50:05.965Z,18.22
2022-09-12T23:52:34.599Z,18.20
2022-09-12T23:55:01.784Z,18.20
2022-09-12T23:57:29.495Z,18.18
2022-09-12T23:59:56.693Z,18.15
